Sligo Airport - TAF
(Terminal Area Forecast)

Issued at 13:36 UTC on Mon. 20-Nov-17

--- METARS(SA) ---

METAR EISG(SLIGO) 201300Z 24008KT 9999 OVC013 12/11 Q1009 =

--- TAFS() ---

TAF EISG(SLIGO) 201100Z 2012/2021 25012KT 9999 BKN014 BECMG

2015/2018 20010KT 5000 -RADZ BKN009 TEMPO 2017/2021 2000 RADZ BKN004 =

--- SIGMETS(WS) ---

IE - No VALID SIGMETS/Warnings FOR THIS AREA

--- SIGMETS Volcanic(WV) ---

IE - No VALID SIGMETS/Warnings FOR THIS AREA

--- SIGMETS(WS) ---

EGPX SIGMET 04 VALID 201200/201600 EGRR- EGPX

SCOTTISH FIR SEV ICE FCST WI N5912 W00406 - N5748 E00117 - N5605

W00030 - N5808 W00604 - N5912 W00406 FL030/100 STNR NC=

Sligo Airport - METARs

Latest METARs for Sligo and Donegal Airports - updated every 30 mins